Time;durP1;ratioP1;P1;durP2;ratioP2;P2;SDS_P1;SDS_P2;PMS_P1;PMS_P2;Temp;Humidity;BMP_temperature;BMP_pressure;BME280_temperature;BME280_humidity;BME280_pressure;Samples;Min_cycle;Max_cycle;Signal;HPM_P1;HPM_P2
2023/06/08 00:02:13;;;;;;;20.13;12.32;;;13.80;99.90;;;;;;5050630;28;20044;-85
2023/06/08 00:04:40;;;;;;;18.73;11.95;;;13.80;99.90;;;;;;5050957;28;20037;-85
2023/06/08 00:07:10;;;;;;;14.07;7.35;;;13.80;99.90;;;;;;5050576;28;20044;-85
2023/06/08 00:09:37;;;;;;;19.65;11.63;;;13.70;99.90;;;;;;5033742;28;20056;-85
2023/06/08 00:12:03;;;;;;;19.50;11.80;;;13.70;99.90;;;;;;5033807;28;20498;-85
2023/06/08 00:14:30;;;;;;;17.95;11.95;;;13.80;99.90;;;;;;5033957;28;20171;-85
2023/06/08 00:16:57;;;;;;;17.77;7.53;;;13.80;99.90;;;;;;5050553;28;20053;-85
2023/06/08 00:19:25;;;;;;;17.48;7.75;;;13.80;99.90;;;;;;5033716;28;20541;-85
2023/06/08 00:21:50;;;;;;;18.10;6.90;;;13.70;99.90;;;;;;5050291;28;20032;-85
2023/06/08 00:24:20;;;;;;;20.48;10.55;;;13.70;99.90;;;;;;5050359;28;20056;-85
2023/06/08 00:26:46;;;;;;;16.63;7.13;;;13.70;99.90;;;;;;5050247;28;20052;-84
2023/06/08 00:29:11;;;;;;;16.42;6.22;;;13.70;99.90;;;;;;5050459;28;20128;-85
2023/06/08 00:31:40;;;;;;;16.15;7.78;;;13.70;99.90;;;;;;5049998;28;20388;-85
2023/06/08 00:34:06;;;;;;;14.93;7.03;;;13.60;99.90;;;;;;5050160;28;20072;-85
2023/06/08 00:36:31;;;;;;;18.30;11.10;;;13.60;99.90;;;;;;5069831;28;20072;-85
2023/06/08 00:38:57;;;;;;;18.27;11.20;;;13.70;99.90;;;;;;5070228;28;20458;-85
2023/06/08 00:41:23;;;;;;;14.80;6.40;;;13.80;99.90;;;;;;5053247;28;20072;-85
2023/06/08 00:43:48;;;;;;;15.23;7.78;;;13.70;99.90;;;;;;5070112;28;20044;-85
2023/06/08 00:46:15;;;;;;;13.32;6.00;;;13.70;99.90;;;;;;5070218;28;20039;-85
2023/06/08 00:48:42;;;;;;;20.48;11.13;;;13.60;99.90;;;;;;5053465;28;20078;-85
2023/06/08 00:51:08;;;;;;;13.25;7.65;;;13.70;99.90;;;;;;5070111;28;20079;-85
2023/06/08 00:53:36;;;;;;;13.60;6.25;;;13.70;99.90;;;;;;5053684;28;20041;-85
2023/06/08 00:56:03;;;;;;;17.08;10.63;;;13.60;99.90;;;;;;5067082;28;20039;-85
2023/06/08 00:58:29;;;;;;;18.30;11.25;;;13.60;99.90;;;;;;5053402;28;20098;-85
2023/06/08 01:00:59;;;;;;;18.27;6.43;;;13.70;99.90;;;;;;5068028;28;20067;-85
2023/06/08 01:03:38;;;;;;;13.20;6.35;;;13.60;99.90;;;;;;5070058;28;20051;-85
2023/06/08 01:06:07;;;;;;;15.75;6.63;;;13.50;99.90;;;;;;5053568;28;20395;-85
2023/06/08 01:08:47;;;;;;;16.17;7.32;;;13.40;99.90;;;;;;5073682;28;20044;-85
2023/06/08 01:11:15;;;;;;;17.30;11.90;;;13.40;99.90;;;;;;5056963;28;20044;-85
2023/06/08 01:13:58;;;;;;;20.58;8.52;;;13.40;99.90;;;;;;5073564;28;20079;-84
2023/06/08 01:16:32;;;;;;;18.10;11.23;;;13.40;99.90;;;;;;5073867;28;20051;-85
2023/06/08 01:19:08;;;;;;;18.83;12.05;;;13.40;99.90;;;;;;5073826;28;20197;-85
2023/06/08 01:21:52;;;;;;;14.27;7.32;;;13.50;99.90;;;;;;5056726;28;20037;-85
2023/06/08 01:24:23;;;;;;;15.45;7.15;;;13.40;99.90;;;;;;5073426;28;20111;-85
2023/06/08 01:26:50;;;;;;;14.60;7.55;;;13.30;99.90;;;;;;5073640;28;20036;-85
2023/06/08 01:29:18;;;;;;;14.25;7.20;;;13.30;99.90;;;;;;5073477;28;20045;-85
2023/06/08 01:31:44;;;;;;;24.27;7.88;;;13.30;99.90;;;;;;5056581;28;20048;-85
2023/06/08 01:34:13;;;;;;;17.13;7.72;;;13.30;99.90;;;;;;5056668;28;20412;-85
2023/06/08 01:37:00;;;;;;;17.63;7.80;;;13.20;99.90;;;;;;5073716;28;20394;-85
2023/06/08 01:39:35;;;;;;;18.48;8.68;;;13.20;99.90;;;;;;5073133;28;20078;-85
2023/06/08 01:42:03;;;;;;;20.65;13.27;;;13.20;99.90;;;;;;5073514;28;20041;-85
2023/06/08 01:44:33;;;;;;;15.38;7.25;;;13.30;99.90;;;;;;5073204;28;20406;-84
2023/06/08 01:47:01;;;;;;;17.45;7.80;;;13.30;99.90;;;;;;5073261;28;20498;-85
2023/06/08 01:49:28;;;;;;;17.60;7.38;;;13.20;99.90;;;;;;5072827;28;20070;-85
2023/06/08 01:51:54;;;;;;;20.67;12.27;;;13.20;99.90;;;;;;5073106;28;20040;-85
2023/06/08 01:54:23;;;;;;;15.57;7.15;;;13.20;99.90;;;;;;5072946;28;20094;-85
2023/06/08 01:56:49;;;;;;;17.35;6.68;;;13.20;99.90;;;;;;5073000;28;20068;-85
2023/06/08 01:59:15;;;;;;;19.65;12.10;;;13.20;99.90;;;;;;5073259;28;20036;-85
2023/06/08 02:01:40;;;;;;;14.20;6.57;;;13.30;99.90;;;;;;5072584;28;20405;-85
2023/06/08 02:04:06;;;;;;;15.23;7.30;;;13.20;99.90;;;;;;5072923;28;20040;-85
2023/06/08 02:06:32;;;;;;;18.92;12.20;;;13.20;99.90;;;;;;5072760;28;20417;-85
2023/06/08 02:08:57;;;;;;;16.45;6.63;;;13.30;99.90;;;;;;5072768;28;20383;-85
2023/06/08 02:11:23;;;;;;;20.35;12.25;;;13.20;99.90;;;;;;5072290;28;20383;-85
2023/06/08 02:13:49;;;;;;;17.25;6.28;;;13.30;99.90;;;;;;5055976;28;20441;-85
2023/06/08 02:16:18;;;;;;;17.27;10.70;;;13.20;99.90;;;;;;5055946;28;20040;-85
2023/06/08 02:18:45;;;;;;;14.23;6.00;;;13.30;99.90;;;;;;5071866;28;20040;-85
2023/06/08 02:21:11;;;;;;;14.13;6.00;;;13.20;99.90;;;;;;5055513;28;20120;-84
2023/06/08 02:23:38;;;;;;;12.93;5.75;;;13.10;99.90;;;;;;5055908;28;20398;-85
2023/06/08 02:26:06;;;;;;;20.35;7.00;;;13.10;99.90;;;;;;5072382;28;20041;-85
2023/06/08 02:28:33;;;;;;;13.85;5.55;;;13.00;99.90;;;;;;5072485;28;20041;-85
2023/06/08 02:30:58;;;;;;;16.88;6.47;;;13.00;99.90;;;;;;5072091;28;20460;-85
2023/06/08 02:33:24;;;;;;;17.50;10.40;;;13.00;99.90;;;;;;5055537;28;20040;-85
2023/06/08 02:35:50;;;;;;;16.58;6.00;;;13.00;99.90;;;;;;5072365;28;20406;-85
2023/06/08 02:38:16;;;;;;;14.25;5.43;;;13.00;99.90;;;;;;5072463;28;20036;-85
2023/06/08 02:40:42;;;;;;;16.35;6.22;;;13.00;99.90;;;;;;5055125;28;20040;-85
2023/06/08 02:43:08;;;;;;;16.20;10.57;;;13.00;99.90;;;;;;5055742;28;20090;-85
2023/06/08 02:45:34;;;;;;;15.32;5.65;;;13.10;99.90;;;;;;5072120;28;20036;-84
2023/06/08 02:48:00;;;;;;;18.77;7.05;;;13.00;99.90;;;;;;5072019;28;20033;-85
2023/06/08 02:50:26;;;;;;;18.15;6.15;;;13.00;99.90;;;;;;5054965;28;20043;-85
2023/06/08 02:52:51;;;;;;;18.17;11.00;;;12.90;99.90;;;;;;5071904;28;20123;-85
2023/06/08 02:55:17;;;;;;;15.07;5.43;;;13.00;99.90;;;;;;5071763;28;20119;-85
2023/06/08 02:57:43;;;;;;;17.10;5.85;;;13.00;99.90;;;;;;5055259;28;20494;-85
2023/06/08 03:00:12;;;;;;;17.05;5.95;;;12.90;99.90;;;;;;5071523;28;20040;-85
2023/06/08 03:02:38;;;;;;;13.75;6.28;;;12.90;99.90;;;;;;5071786;28;20045;-84
2023/06/08 03:05:04;;;;;;;13.48;5.30;;;12.90;99.90;;;;;;5071703;28;20048;-84
2023/06/08 03:07:33;;;;;;;14.73;6.35;;;12.80;99.90;;;;;;5054745;28;20105;-85
2023/06/08 03:09:59;;;;;;;16.27;11.15;;;12.80;99.90;;;;;;5071477;28;20383;-85
2023/06/08 03:12:25;;;;;;;16.63;6.50;;;12.90;99.90;;;;;;5071393;28;20401;-84
2023/06/08 03:14:50;;;;;;;13.10;5.97;;;12.80;99.90;;;;;;5071505;28;20044;-85
2023/06/08 03:17:17;;;;;;;15.85;10.50;;;12.80;99.90;;;;;;5054743;28;20047;-85
2023/06/08 03:19:46;;;;;;;16.88;6.63;;;12.80;99.90;;;;;;5054519;28;20055;-85
2023/06/08 03:22:12;;;;;;;15.15;5.93;;;12.80;99.90;;;;;;5071333;28;20037;-85
2023/06/08 03:24:37;;;;;;;16.90;10.35;;;12.80;99.90;;;;;;5071566;28;20067;-85
2023/06/08 03:27:06;;;;;;;19.25;11.77;;;12.80;99.90;;;;;;5071090;28;20099;-85
2023/06/08 03:29:32;;;;;;;14.20;6.32;;;12.80;99.90;;;;;;5070571;28;20048;-85
2023/06/08 03:31:58;;;;;;;16.02;6.35;;;12.80;99.90;;;;;;5053800;28;20048;-85
2023/06/08 03:34:27;;;;;;;14.40;7.93;;;12.70;99.90;;;;;;5054161;28;20393;-85
2023/06/08 03:36:54;;;;;;;15.00;6.40;;;12.70;99.90;;;;;;5071150;28;20033;-85
2023/06/08 03:39:21;;;;;;;17.25;6.38;;;12.70;99.90;;;;;;5054517;28;20371;-85
2023/06/08 03:41:46;;;;;;;15.50;6.38;;;12.70;99.90;;;;;;5070822;28;20068;-85
2023/06/08 03:44:12;;;;;;;17.90;11.45;;;12.70;99.90;;;;;;5071030;28;20078;-85
2023/06/08 03:46:37;;;;;;;12.27;6.38;;;12.80;99.90;;;;;;5070966;28;20093;-85
2023/06/08 03:49:03;;;;;;;15.75;7.00;;;12.80;99.90;;;;;;5054170;28;20130;-85
2023/06/08 03:51:29;;;;;;;17.83;6.70;;;12.70;99.90;;;;;;5070758;28;20036;-85
2023/06/08 03:53:55;;;;;;;22.13;12.35;;;12.70;99.90;;;;;;5070946;28;20376;-85
2023/06/08 03:56:21;;;;;;;15.65;6.88;;;12.80;99.90;;;;;;5053820;28;20039;-85
2023/06/08 03:58:46;;;;;;;10.95;5.75;;;12.70;99.90;;;;;;5070832;28;20070;-84
2023/06/08 04:01:13;;;;;;;15.95;6.35;;;12.70;99.90;;;;;;5070632;28;20432;-85
2023/06/08 04:03:39;;;;;;;17.50;6.57;;;12.70;99.90;;;;;;5053908;28;20041;-85
2023/06/08 04:06:08;;;;;;;14.40;8.18;;;12.60;99.90;;;;;;5070648;28;20082;-85
2023/06/08 04:08:41;;;;;;;18.92;11.43;;;12.60;99.90;;;;;;5053884;28;20064;-85
2023/06/08 04:11:08;;;;;;;18.80;12.07;;;12.70;99.90;;;;;;5053712;28;20036;-85
2023/06/08 04:13:36;;;;;;;14.50;5.82;;;12.80;99.90;;;;;;5053610;28;20089;-84
2023/06/08 04:16:07;;;;;;;16.02;6.50;;;12.70;99.90;;;;;;5070505;28;20037;-85
2023/06/08 04:18:32;;;;;;;16.70;6.75;;;12.70;99.90;;;;;;5053996;28;20072;-85
2023/06/08 04:20:58;;;;;;;15.38;5.82;;;12.70;99.90;;;;;;5070147;28;20528;-85
2023/06/08 04:23:24;;;;;;;16.42;7.18;;;12.70;99.90;;;;;;5053703;28;20044;-85
2023/06/08 04:25:49;;;;;;;18.35;11.05;;;12.70;99.90;;;;;;5070617;28;20112;-86
2023/06/08 04:28:15;;;;;;;18.10;10.50;;;12.80;99.90;;;;;;5053747;28;20036;-85
2023/06/08 04:30:41;;;;;;;14.85;6.40;;;12.90;99.90;;;;;;5070047;28;20079;-86
2023/06/08 04:33:08;;;;;;;18.63;6.35;;;12.80;99.90;;;;;;5053702;28;20068;-86
2023/06/08 04:35:33;;;;;;;14.93;6.18;;;12.80;99.90;;;;;;5070244;28;20036;-85
2023/06/08 04:37:59;;;;;;;19.52;6.28;;;12.80;99.90;;;;;;5053638;28;20379;-86
2023/06/08 04:40:25;;;;;;;13.93;6.35;;;12.80;99.90;;;;;;5069833;28;20032;-86
2023/06/08 04:42:51;;;;;;;13.73;5.25;;;12.80;99.90;;;;;;5073079;28;20036;-86
2023/06/08 04:45:18;;;;;;;14.98;6.10;;;12.80;99.90;;;;;;5057613;28;20094;-85
2023/06/08 04:47:45;;;;;;;18.35;9.98;;;12.80;99.90;;;;;;5057656;28;20131;-85
2023/06/08 04:50:10;;;;;;;17.85;10.50;;;12.90;99.90;;;;;;5073974;28;20097;-85
2023/06/08 04:52:45;;;;;;;15.20;6.50;;;13.00;99.90;;;;;;5074130;28;20044;-85
2023/06/08 04:55:14;;;;;;;14.88;6.10;;;12.90;99.90;;;;;;5074329;28;20597;-86
2023/06/08 04:57:43;;;;;;;15.02;5.72;;;12.90;99.90;;;;;;5074231;28;20059;-85
2023/06/08 05:00:10;;;;;;;17.48;6.82;;;12.90;99.90;;;;;;5057091;28;20086;-85
2023/06/08 05:02:37;;;;;;;14.18;6.63;;;12.90;99.90;;;;;;5057578;28;20502;-85
2023/06/08 05:05:03;;;;;;;16.67;7.72;;;12.90;99.90;;;;;;5073992;28;20534;-85
2023/06/08 05:07:29;;;;;;;17.15;7.20;;;12.90;99.90;;;;;;5073797;28;20040;-85
2023/06/08 05:09:56;;;;;;;15.20;7.57;;;13.00;99.90;;;;;;5073611;28;20093;-85
2023/06/08 05:12:22;;;;;;;19.05;12.15;;;13.00;99.90;;;;;;5073986;28;20048;-85
2023/06/08 05:14:48;;;;;;;15.52;7.18;;;13.10;99.90;;;;;;5073063;28;20048;-85
2023/06/08 05:17:13;;;;;;;18.38;8.45;;;13.20;99.90;;;;;;5072826;28;20032;-86
2023/06/08 05:19:39;;;;;;;16.65;8.02;;;13.10;99.90;;;;;;5071839;28;20051;-85
2023/06/08 05:22:05;;;;;;;19.13;8.35;;;13.20;99.90;;;;;;5072366;28;20397;-85
2023/06/08 05:24:33;;;;;;;17.23;7.93;;;13.20;99.90;;;;;;5055480;28;20032;-85
2023/06/08 05:26:59;;;;;;;20.88;14.93;;;13.30;99.90;;;;;;5072224;28;20035;-85
2023/06/08 05:29:24;;;;;;;18.45;8.85;;;13.40;99.90;;;;;;5056352;28;20040;-85
2023/06/08 05:31:50;;;;;;;21.42;8.73;;;13.40;99.90;;;;;;5056329;28;20047;-86
2023/06/08 05:34:16;;;;;;;21.63;14.15;;;13.40;99.90;;;;;;5056843;28;20068;-86
2023/06/08 05:36:41;;;;;;;20.80;8.77;;;13.50;99.90;;;;;;5073657;28;20082;-85
2023/06/08 05:39:07;;;;;;;22.63;15.20;;;13.40;99.90;;;;;;5073563;28;20032;-86
2023/06/08 05:41:33;;;;;;;20.27;7.80;;;13.60;99.90;;;;;;5073291;28;20075;-86
2023/06/08 05:43:59;;;;;;;17.70;7.65;;;13.60;99.90;;;;;;5073402;28;20041;-86
2023/06/08 05:46:24;;;;;;;21.02;13.48;;;13.60;99.90;;;;;;5056582;28;20391;-86
2023/06/08 05:48:50;;;;;;;17.20;8.30;;;13.80;99.90;;;;;;5056636;28;20044;-86
2023/06/08 05:51:16;;;;;;;16.38;7.53;;;13.80;99.90;;;;;;5056255;28;20048;-87
2023/06/08 05:53:41;;;;;;;21.35;13.23;;;13.80;99.90;;;;;;5071929;28;20079;-86
2023/06/08 05:56:07;;;;;;;18.15;12.10;;;13.90;99.90;;;;;;5073243;28;20470;-87
2023/06/08 05:58:33;;;;;;;20.90;8.25;;;14.00;99.90;;;;;;5072890;28;20034;-87
2023/06/08 06:00:59;;;;;;;17.00;7.93;;;14.10;99.90;;;;;;5056023;28;20123;-87
2023/06/08 06:03:25;;;;;;;13.93;7.35;;;14.10;99.90;;;;;;5055465;28;20115;-86
2023/06/08 06:05:50;;;;;;;16.67;10.05;;;14.10;99.90;;;;;;5055530;28;20123;-86
2023/06/08 06:08:16;;;;;;;14.60;6.68;;;14.20;99.90;;;;;;5053934;28;20422;-86
2023/06/08 06:10:41;;;;;;;20.67;7.80;;;14.30;99.90;;;;;;5056092;28;20044;-86
2023/06/08 06:13:07;;;;;;;16.42;9.77;;;14.30;99.90;;;;;;5056144;28;20504;-86
2023/06/08 06:15:33;;;;;;;14.75;8.70;;;14.40;99.90;;;;;;5072331;28;20033;-86
2023/06/08 06:17:59;;;;;;;16.38;6.32;;;14.50;99.90;;;;;;5072741;28;20399;-85
2023/06/08 06:20:27;;;;;;;15.27;6.43;;;14.50;99.90;;;;;;5055424;28;20115;-86
2023/06/08 06:22:53;;;;;;;16.48;9.20;;;14.50;99.90;;;;;;5056214;28;20102;-85
2023/06/08 06:25:18;;;;;;;11.60;6.13;;;14.60;99.90;;;;;;5072354;28;20505;-86
2023/06/08 06:27:44;;;;;;;19.55;6.90;;;14.60;99.90;;;;;;5055172;28;20040;-86
2023/06/08 06:30:11;;;;;;;15.52;9.00;;;14.70;99.90;;;;;;5071833;28;20072;-86
2023/06/08 06:32:36;;;;;;;17.25;6.38;;;14.80;99.90;;;;;;5055785;28;20509;-86
2023/06/08 06:35:02;;;;;;;15.07;5.93;;;14.90;99.90;;;;;;5055686;28;20075;-86
2023/06/08 06:37:34;;;;;;;16.55;8.15;;;14.90;99.90;;;;;;5072142;28;20452;-86
2023/06/08 06:40:09;;;;;;;12.30;5.77;;;15.00;99.90;;;;;;5071630;28;20079;-86
2023/06/08 06:42:37;;;;;;;16.58;7.65;;;15.10;99.90;;;;;;5069978;28;20093;-86
2023/06/08 06:45:03;;;;;;;15.60;7.47;;;15.10;99.90;;;;;;5052145;28;20424;-85
2023/06/08 06:47:29;;;;;;;15.68;8.27;;;15.30;99.90;;;;;;5068104;28;20473;-86
2023/06/08 06:49:55;;;;;;;15.20;6.07;;;15.30;99.90;;;;;;5051166;28;20084;-86
2023/06/08 06:52:21;;;;;;;14.57;7.90;;;15.40;99.90;;;;;;5052235;28;20081;-85
2023/06/08 06:54:46;;;;;;;14.75;8.10;;;15.40;99.90;;;;;;5068540;28;20041;-86
2023/06/08 06:57:12;;;;;;;19.08;5.55;;;15.50;99.90;;;;;;5071507;28;20094;-85
2023/06/08 06:59:38;;;;;;;18.60;6.00;;;15.50;99.90;;;;;;5071672;28;20037;-85
2023/06/08 07:02:06;;;;;;;11.85;5.68;;;15.40;99.90;;;;;;5072087;28;20120;-86
2023/06/08 07:04:32;;;;;;;15.27;7.75;;;15.30;99.90;;;;;;5071941;28;20254;-86
2023/06/08 07:06:57;;;;;;;14.23;5.35;;;15.40;99.90;;;;;;5072088;28;20688;-86
2023/06/08 07:09:24;;;;;;;15.32;7.72;;;15.50;99.90;;;;;;5055075;28;20517;-86
2023/06/08 07:11:50;;;;;;;12.05;5.97;;;15.60;99.90;;;;;;5054796;28;20041;-85
2023/06/08 07:14:16;;;;;;;16.48;6.07;;;15.60;99.90;;;;;;5088436;28;20045;-86
2023/06/08 07:16:42;;;;;;;15.18;6.57;;;15.60;99.90;;;;;;5087909;28;20085;-86
2023/06/08 07:19:07;;;;;;;16.48;8.73;;;15.70;99.90;;;;;;5054817;28;20033;-86
2023/06/08 07:21:38;;;;;;;15.45;8.20;;;15.80;99.90;;;;;;5054671;28;20170;-85
2023/06/08 07:24:04;;;;;;;18.02;8.43;;;15.90;99.90;;;;;;5054826;28;20037;-85
2023/06/08 07:26:30;;;;;;;15.77;8.60;;;15.90;99.90;;;;;;5071474;28;20040;-85
2023/06/08 07:28:57;;;;;;;13.18;5.85;;;16.00;99.90;;;;;;5071484;28;20036;-85
2023/06/08 07:31:23;;;;;;;15.48;6.72;;;16.00;99.90;;;;;;5054323;28;20044;-86
2023/06/08 07:33:50;;;;;;;14.68;6.30;;;16.00;99.90;;;;;;5071075;28;20556;-85
2023/06/08 07:36:16;;;;;;;17.67;8.68;;;16.00;99.90;;;;;;5054676;28;20123;-85
2023/06/08 07:38:42;;;;;;;18.10;8.95;;;16.10;99.90;;;;;;5071249;28;20076;-86
2023/06/08 07:41:07;;;;;;;16.80;8.68;;;16.30;99.90;;;;;;5070057;28;20033;-87
2023/06/08 07:43:33;;;;;;;14.73;8.25;;;16.40;99.90;;;;;;5070557;28;20037;-86
2023/06/08 07:45:58;;;;;;;14.98;8.40;;;16.60;99.90;;;;;;5070835;28;20063;-86
2023/06/08 07:48:24;;;;;;;14.43;6.75;;;16.80;99.90;;;;;;5070915;28;20032;-86
2023/06/08 07:50:50;;;;;;;14.50;8.13;;;16.90;99.90;;;;;;5070546;28;20040;-86
2023/06/08 07:53:17;;;;;;;18.80;8.70;;;17.00;99.90;;;;;;5070768;28;20072;-86
2023/06/08 07:55:42;;;;;;;16.58;8.27;;;17.10;99.90;;;;;;5070691;28;20080;-86
2023/06/08 07:58:08;;;;;;;14.65;7.88;;;17.30;99.90;;;;;;5070890;28;20071;-86
2023/06/08 08:00:35;;;;;;;16.90;8.10;;;17.50;99.90;;;;;;5070485;28;20119;-86
2023/06/08 08:03:03;;;;;;;16.60;8.77;;;17.50;99.90;;;;;;5070797;28;20044;-86
2023/06/08 08:05:29;;;;;;;14.00;8.65;;;17.70;99.90;;;;;;5054107;28;20083;-86
2023/06/08 08:07:55;;;;;;;16.95;8.55;;;17.80;99.90;;;;;;5070667;28;20051;-86
2023/06/08 08:10:20;;;;;;;16.63;8.15;;;17.90;99.90;;;;;;5070411;28;20037;-86
2023/06/08 08:12:46;;;;;;;15.32;8.90;;;18.00;99.90;;;;;;5070674;28;20068;-86
2023/06/08 08:15:12;;;;;;;17.27;8.35;;;18.10;99.90;;;;;;5070770;28;20101;-87
2023/06/08 08:17:37;;;;;;;15.75;7.57;;;18.10;99.90;;;;;;5070092;28;20041;-87
2023/06/08 08:20:04;;;;;;;14.65;7.85;;;18.10;98.60;;;;;;5053446;28;20044;-87
2023/06/08 08:22:31;;;;;;;13.98;8.00;;;18.10;97.30;;;;;;5054051;28;20043;-87
2023/06/08 08:24:57;;;;;;;16.50;8.35;;;18.00;96.60;;;;;;5070230;28;20074;-87
2023/06/08 08:27:23;;;;;;;13.55;7.57;;;18.10;96.20;;;;;;5050744;28;20076;-87
2023/06/08 08:29:48;;;;;;;16.92;7.85;;;18.00;96.00;;;;;;5050447;28;20040;-87
2023/06/08 08:32:14;;;;;;;15.70;8.20;;;18.00;96.10;;;;;;5050715;28;20553;-86
2023/06/08 08:34:40;;;;;;;15.27;8.30;;;18.00;96.70;;;;;;5050355;28;20511;-86
2023/06/08 08:37:06;;;;;;;17.52;7.93;;;18.10;96.90;;;;;;5050439;28;20037;-86
2023/06/08 08:39:32;;;;;;;16.63;8.88;;;18.10;96.30;;;;;;5050042;28;20045;-86
2023/06/08 08:42:02;;;;;;;15.77;8.40;;;18.20;96.10;;;;;;5034071;28;20033;-86
2023/06/08 08:44:29;;;;;;;15.55;7.68;;;18.20;96.10;;;;;;5050572;28;20131;-86
2023/06/08 08:46:56;;;;;;;15.45;7.43;;;18.30;96.20;;;;;;5033946;28;20045;-87
2023/06/08 08:49:24;;;;;;;14.88;7.70;;;18.40;95.70;;;;;;5050353;28;20044;-87
2023/06/08 08:51:52;;;;;;;17.10;7.43;;;18.50;95.80;;;;;;5050041;28;20426;-86
2023/06/08 08:54:25;;;;;;;14.18;7.22;;;18.70;96.20;;;;;;5050192;28;20127;-87
2023/06/08 08:56:55;;;;;;;;;;;18.70;95.40;;;;;;5051362;28;20024;-87
2023/06/08 08:59:23;;;;;;;13.02;6.25;;;18.70;95.20;;;;;;5071124;28;19916;-87
2023/06/08 09:01:49;;;;;;;12.98;6.10;;;18.80;94.20;;;;;;5052888;28;20466;-87
2023/06/08 09:04:14;;;;;;;11.07;5.70;;;18.90;93.50;;;;;;5070030;28;20498;-87
2023/06/08 09:06:47;;;;;;;16.92;5.93;;;19.10;92.60;;;;;;5069682;28;20043;-87
2023/06/08 09:09:13;;;;;;;13.55;6.03;;;19.20;91.70;;;;;;5070111;28;20074;-87
2023/06/08 09:11:59;;;;;;;12.73;5.45;;;19.30;92.30;;;;;;5070262;28;20041;-87
2023/06/08 09:14:25;;;;;;;11.70;5.80;;;19.50;92.10;;;;;;5053298;28;20051;-87
2023/06/08 09:16:51;;;;;;;12.05;5.38;;;19.60;91.60;;;;;;5069949;28;20040;-87
2023/06/08 09:19:16;;;;;;;13.82;5.93;;;19.70;90.60;;;;;;5069260;28;20032;-87
2023/06/08 09:21:43;;;;;;;11.75;5.88;;;19.80;90.50;;;;;;5069614;28;20131;-87
2023/06/08 09:24:27;;;;;;;13.93;6.03;;;19.90;89.80;;;;;;5070114;28;20055;-87
2023/06/08 09:26:56;;;;;;;13.15;5.40;;;20.10;88.10;;;;;;5069926;28;20048;-87
2023/06/08 09:29:40;;;;;;;12.98;6.03;;;20.10;87.50;;;;;;5072375;28;20036;-87
2023/06/08 09:32:12;;;;;;;12.68;6.18;;;20.10;86.40;;;;;;5069613;28;20044;-87
2023/06/08 09:35:07;;;;;;;11.88;6.07;;;20.30;85.80;;;;;;5053920;28;20072;-87
2023/06/08 09:37:36;;;;;;;15.52;6.00;;;20.30;86.90;;;;;;5051070;28;20510;-87
2023/06/08 09:40:09;;;;;;;12.13;5.57;;;20.40;85.00;;;;;;5072972;28;20041;-87
2023/06/08 09:42:53;;;;;;;13.27;6.22;;;20.50;84.20;;;;;;5073512;28;20040;-88
2023/06/08 09:45:20;;;;;;;12.82;5.65;;;20.60;83.10;;;;;;5056765;28;20054;-87
2023/06/08 09:47:47;;;;;;;13.70;5.72;;;20.60;82.50;;;;;;5073363;28;20048;-87
2023/06/08 09:50:13;;;;;;;12.35;5.40;;;20.70;81.50;;;;;;5073058;28;20048;-87
2023/06/08 09:52:39;;;;;;;14.15;6.20;;;20.80;81.60;;;;;;5056592;28;20525;-87
2023/06/08 09:55:05;;;;;;;13.00;5.38;;;20.90;81.70;;;;;;5073347;28;20457;-87
2023/06/08 09:57:36;;;;;;;12.65;5.32;;;21.00;80.40;;;;;;5073218;28;20078;-87
2023/06/08 10:00:17;;;;;;;13.70;5.60;;;21.00;80.00;;;;;;5072868;28;20032;-87
2023/06/08 10:02:53;;;;;;;11.57;4.90;;;21.10;80.80;;;;;;5073425;28;20040;-87
2023/06/08 10:05:22;;;;;;;12.70;5.57;;;21.20;80.20;;;;;;5056119;28;20445;-87
2023/06/08 10:07:51;;;;;;;12.60;5.57;;;21.40;79.60;;;;;;5072985;28;20040;-87
2023/06/08 10:10:34;;;;;;;10.63;4.70;;;21.50;77.50;;;;;;5072939;28;20067;-87
2023/06/08 10:13:00;;;;;;;12.63;5.45;;;21.50;75.80;;;;;;5072889;28;20517;-87
2023/06/08 10:15:27;;;;;;;13.57;5.45;;;21.50;75.80;;;;;;5056002;28;20037;-87
2023/06/08 10:17:58;;;;;;;16.58;6.13;;;21.50;76.60;;;;;;5072744;28;20040;-87
2023/06/08 10:20:24;;;;;;;12.15;5.78;;;21.50;74.60;;;;;;5055774;28;20036;-87
2023/06/08 10:22:51;;;;;;;12.95;6.05;;;21.50;74.30;;;;;;5072981;28;20047;-87
2023/06/08 10:25:18;;;;;;;13.80;5.85;;;21.50;74.80;;;;;;5072818;28;20115;-87
2023/06/08 10:27:51;;;;;;;12.65;5.63;;;21.60;75.90;;;;;;5072798;28;20037;-88
2023/06/08 10:30:40;;;;;;;13.93;5.68;;;21.70;75.90;;;;;;5072260;28;20048;-88
2023/06/08 10:33:10;;;;;;;14.43;6.30;;;21.70;75.80;;;;;;5072828;28;20567;-88
2023/06/08 10:35:38;;;;;;;15.32;5.53;;;21.80;76.20;;;;;;5055923;28;20037;-88
2023/06/08 10:38:12;;;;;;;11.73;5.07;;;22.00;77.10;;;;;;5055806;28;20048;-87
2023/06/08 10:40:50;;;;;;;12.02;5.93;;;22.20;76.00;;;;;;5071411;28;20041;-88
2023/06/08 10:43:17;;;;;;;14.73;5.03;;;22.40;75.50;;;;;;5072628;28;20397;-88
2023/06/08 10:45:46;;;;;;;13.98;5.70;;;22.50;75.50;;;;;;5055579;28;20050;-87
2023/06/08 10:48:16;;;;;;;12.05;5.80;;;22.60;73.10;;;;;;5055812;28;20036;-87
2023/06/08 10:50:43;;;;;;;16.40;7.10;;;22.70;73.30;;;;;;5071919;28;20036;-87
2023/06/08 10:53:08;;;;;;;13.85;5.90;;;22.90;72.80;;;;;;5055615;28;20051;-88
2023/06/08 10:55:34;;;;;;;11.98;6.00;;;23.00;72.90;;;;;;5055445;28;20040;-88
2023/06/08 10:58:16;;;;;;;14.02;5.70;;;23.10;72.20;;;;;;5055377;28;20040;-88
2023/06/08 11:00:43;;;;;;;12.80;5.60;;;23.10;72.00;;;;;;5054922;28;20043;-88
2023/06/08 11:03:17;;;;;;;12.32;5.72;;;23.20;72.00;;;;;;5055404;28;20067;-87
2023/06/08 11:05:45;;;;;;;9.85;4.88;;;23.40;70.90;;;;;;5055055;28;20048;-87
2023/06/08 11:08:11;;;;;;;11.07;4.75;;;23.40;69.50;;;;;;5054973;28;20032;-88
2023/06/08 11:10:41;;;;;;;12.68;4.88;;;23.50;68.50;;;;;;5071091;28;20040;-87
2023/06/08 11:13:08;;;;;;;12.88;5.15;;;23.60;68.20;;;;;;5054521;28;20041;-87
2023/06/08 11:15:36;;;;;;;12.00;5.18;;;23.60;68.00;;;;;;5054205;28;20083;-87
2023/06/08 11:18:03;;;;;;;11.40;4.82;;;23.60;67.80;;;;;;5053782;28;20040;-87
2023/06/08 11:20:29;;;;;;;11.82;6.20;;;23.70;68.30;;;;;;5049218;28;20091;-87
2023/06/08 11:22:55;;;;;;;10.55;5.75;;;23.70;68.00;;;;;;5071181;28;20033;-87
2023/06/08 11:25:22;;;;;;;11.50;4.70;;;23.70;67.50;;;;;;5052476;28;20043;-87
2023/06/08 11:27:52;;;;;;;12.25;5.10;;;23.70;68.10;;;;;;5070242;28;20047;-88
2023/06/08 11:30:20;;;;;;;12.63;4.85;;;23.80;68.10;;;;;;5054527;28;20045;-88
2023/06/08 11:32:50;;;;;;;11.38;4.97;;;23.90;68.90;;;;;;5071354;28;20506;-88
2023/06/08 11:35:23;;;;;;;12.20;4.93;;;24.00;67.80;;;;;;5054680;28;20033;-88
2023/06/08 11:37:50;;;;;;;13.75;5.25;;;24.20;67.80;;;;;;5054651;28;20044;-88
2023/06/08 11:40:16;;;;;;;15.15;5.50;;;24.30;68.30;;;;;;5070927;28;20044;-88
2023/06/08 11:42:42;;;;;;;10.77;4.45;;;24.50;68.00;;;;;;5054626;28;20402;-88
2023/06/08 11:45:10;;;;;;;11.75;4.78;;;24.60;67.20;;;;;;5071133;28;20510;-88
2023/06/08 11:47:36;;;;;;;12.93;5.03;;;24.80;66.30;;;;;;5071341;28;20422;-87
2023/06/08 11:50:03;;;;;;;11.20;5.03;;;24.80;66.00;;;;;;5069557;28;20482;-88
2023/06/08 11:52:33;;;;;;;12.57;4.80;;;25.00;66.40;;;;;;5069528;28;20043;-88
2023/06/08 11:55:01;;;;;;;11.80;4.80;;;25.10;66.10;;;;;;5050336;28;20498;-88
2023/06/08 11:58:03;;;;;;;12.15;4.50;;;25.20;65.80;;;;;;5034305;28;20036;-88
2023/06/08 12:00:33;;;;;;;11.05;4.70;;;25.20;65.50;;;;;;5031313;28;20045;-88
2023/06/08 12:03:01;;;;;;;11.82;4.70;;;25.10;64.70;;;;;;5032177;28;20099;-88
2023/06/08 12:05:28;;;;;;;10.80;5.13;;;25.20;65.50;;;;;;5031774;28;20048;-88
2023/06/08 12:07:56;;;;;;;11.18;5.15;;;25.30;65.30;;;;;;5048816;28;20132;-87
2023/06/08 12:10:24;;;;;;;11.40;4.93;;;25.30;65.50;;;;;;5015109;28;20127;-87
2023/06/08 12:12:50;;;;;;;13.27;5.35;;;25.30;65.10;;;;;;5031513;28;20563;-88
2023/06/08 12:15:17;;;;;;;12.00;5.07;;;25.40;64.80;;;;;;5015681;28;20045;-88
2023/06/08 12:17:43;;;;;;;13.32;5.10;;;25.50;65.30;;;;;;5031376;28;20565;-87
2023/06/08 12:20:09;;;;;;;10.50;4.82;;;25.70;64.80;;;;;;5015165;28;20051;-87
2023/06/08 12:22:34;;;;;;;12.80;5.05;;;25.70;64.40;;;;;;5031725;28;20049;-88
2023/06/08 12:25:00;;;;;;;14.05;5.00;;;25.90;64.70;;;;;;5047473;28;20124;-87
2023/06/08 12:27:29;;;;;;;12.80;5.05;;;26.00;64.20;;;;;;5031713;28;20492;-87
2023/06/08 12:29:56;;;;;;;13.38;5.00;;;26.10;63.90;;;;;;5031543;28;20060;-87
2023/06/08 12:32:23;;;;;;;13.00;5.32;;;26.30;64.40;;;;;;5032037;28;20036;-87
2023/06/08 12:34:48;;;;;;;11.32;4.95;;;26.40;63.70;;;;;;5032222;28;20041;-87
2023/06/08 12:37:14;;;;;;;10.57;4.65;;;26.40;63.00;;;;;;5033871;28;20517;-88
2023/06/08 12:39:39;;;;;;;15.77;5.05;;;26.50;63.10;;;;;;5033241;28;20461;-88